Time;durP1;ratioP1;P1;durP2;ratioP2;P2;SDS_P1;SDS_P2;PMS_P1;PMS_P2;Temp;Humidity;BMP_temperature;BMP_pressure;BME280_temperature;BME280_humidity;BME280_pressure;Samples;Min_cycle;Max_cycle;Signal;HPM_P1;HPM_P2
2021/07/31 00:00:29;;;;;;;4.80;0.77;;;;;;;14.31;78.66;98800.97;2017485;77;20223;-72
2021/07/31 00:03:32;;;;;;;7.91;0.94;;;;;;;14.28;78.86;98800.19;2023029;80;20276;-73
2021/07/31 00:06:34;;;;;;;5.13;0.94;;;;;;;14.23;78.50;98809.94;2023171;80;20202;-72
2021/07/31 00:09:37;;;;;;;10.52;1.15;;;;;;;14.18;78.69;98803.09;2022668;80;20178;-73
2021/07/31 00:12:39;;;;;;;4.01;0.86;;;;;;;14.16;79.08;98804.00;2018809;80;20281;-72
2021/07/31 00:15:42;;;;;;;6.74;0.90;;;;;;;14.15;79.39;98807.53;2020473;80;20449;-72
2021/07/31 00:18:45;;;;;;;8.27;1.02;;;;;;;14.13;79.40;98804.97;2017234;80;20203;-72
2021/07/31 00:21:47;;;;;;;5.15;0.76;;;;;;;14.11;79.49;98805.91;2018105;80;20291;-73
2021/07/31 00:24:50;;;;;;;3.69;0.84;;;;;;;14.10;79.63;98812.88;2017554;80;20205;-73
2021/07/31 00:27:53;;;;;;;7.13;1.00;;;;;;;14.08;79.64;98813.81;2018094;80;20172;-72
2021/07/31 00:30:56;;;;;;;6.04;1.05;;;;;;;14.00;79.83;98805.34;2018304;77;20883;-72
2021/07/31 00:33:58;;;;;;;3.51;0.80;;;;;;;13.98;79.62;98815.81;2022449;80;20723;-72
2021/07/31 00:37:01;;;;;;;3.34;0.85;;;;;;;13.89;79.61;98816.94;2023340;80;20183;-73
2021/07/31 00:40:04;;;;;;;4.50;0.70;;;;;;;13.84;79.85;98810.16;2022542;80;20187;-73
2021/07/31 00:43:08;;;;;;;2.41;0.99;;;;;;;13.81;79.87;98813.66;2023094;80;20981;-73
2021/07/31 00:46:11;;;;;;;4.11;0.80;;;;;;;13.81;79.99;98815.41;2019086;77;20219;-73
2021/07/31 00:49:14;;;;;;;4.31;0.76;;;;;;;13.77;79.94;98816.41;2017561;80;20606;-74
2021/07/31 00:52:17;;;;;;;3.30;0.80;;;;;;;13.72;80.00;98811.31;2017611;80;21100;-72
2021/07/31 00:55:22;;;;;;;4.84;0.70;;;;;;;13.68;79.72;98814.91;2017193;80;20218;-73
2021/07/31 00:58:26;;;;;;;8.23;0.90;;;;;;;13.64;79.92;98813.25;2017722;80;20285;-74
2021/07/31 01:01:29;;;;;;;5.01;0.80;;;;;;;13.63;80.12;98818.50;2018767;77;20200;-72
2021/07/31 01:04:33;;;;;;;4.80;0.73;;;;;;;13.61;80.11;98824.63;2022638;80;20242;-72
2021/07/31 01:07:36;;;;;;;6.01;0.66;;;;;;;13.58;80.05;98829.06;2022747;80;20244;-72
2021/07/31 01:10:38;;;;;;;2.13;0.50;;;;;;;13.58;80.17;98821.25;2022539;80;20194;-71
2021/07/31 01:13:43;;;;;;;5.36;0.71;;;;;;;13.56;80.35;98821.28;2022857;80;20229;-72
2021/07/31 01:16:46;;;;;;;5.93;0.70;;;;;;;13.52;80.60;98821.41;2018549;77;22474;-73
2021/07/31 01:19:48;;;;;;;3.22;0.80;;;;;;;13.51;80.15;98812.72;2017560;80;20195;-72
2021/07/31 01:22:51;;;;;;;7.41;1.89;;;;;;;13.49;80.24;98818.88;2016750;80;20197;-73
2021/07/31 01:25:55;;;;;;;6.90;0.60;;;;;;;13.45;80.64;98820.69;2017186;80;20225;-72
2021/07/31 01:28:57;;;;;;;3.53;0.68;;;;;;;13.42;80.64;98820.78;2018040;80;20604;-72
2021/07/31 01:32:00;;;;;;;1.98;0.60;;;;;;;13.40;80.90;98819.09;2017539;77;20994;-73
2021/07/31 01:35:04;;;;;;;3.03;0.60;;;;;;;13.37;81.07;98817.44;2022579;80;20234;-72
2021/07/31 01:38:07;;;;;;;4.88;0.71;;;;;;;13.30;81.36;98823.72;2022288;80;20166;-72
2021/07/31 01:41:09;;;;;;;3.42;0.68;;;;;;;13.25;81.44;98815.97;2022384;80;20391;-72
2021/07/31 01:44:12;;;;;;;2.59;0.70;;;;;;;13.21;81.59;98823.91;2022984;80;20175;-72
2021/07/31 01:47:15;;;;;;;3.35;0.90;;;;;;;13.21;81.47;98819.56;2020505;77;20175;-72
2021/07/31 01:50:18;;;;;;;6.30;1.04;;;;;;;13.19;81.55;98823.94;2022364;80;20590;-73
2021/07/31 01:53:20;;;;;;;3.16;0.70;;;;;;;13.20;81.40;98828.28;2018658;80;20317;-71
2021/07/31 01:56:23;;;;;;;3.86;0.70;;;;;;;13.17;81.74;98820.50;2022382;80;20735;-73
2021/07/31 01:59:25;;;;;;;3.72;0.61;;;;;;;13.15;81.69;98824.91;2022213;80;20661;-73
2021/07/31 02:02:29;;;;;;;3.96;0.60;;;;;;;13.10;81.77;98829.34;2017685;77;24072;-72
2021/07/31 02:05:31;;;;;;;3.70;0.60;;;;;;;13.03;82.27;98830.38;2018480;80;20209;-72
2021/07/31 02:08:34;;;;;;;1.34;0.50;;;;;;;12.98;82.59;98829.66;2018915;80;20267;-73
2021/07/31 02:11:36;;;;;;;3.13;0.63;;;;;;;12.93;82.61;98823.69;2019642;80;20227;-72
2021/07/31 02:14:40;;;;;;;3.19;0.71;;;;;;;12.92;82.69;98825.41;2019489;80;20201;-72
2021/07/31 02:17:42;;;;;;;3.31;0.63;;;;;;;12.94;82.63;98814.97;2023362;77;21080;-72
2021/07/31 02:20:45;;;;;;;1.70;0.60;;;;;;;12.91;82.47;98815.88;2025100;80;20188;-73
2021/07/31 02:23:48;;;;;;;3.34;0.70;;;;;;;12.84;82.52;98806.50;2024564;80;20945;-72
2021/07/31 02:26:51;;;;;;;6.80;0.71;;;;;;;12.80;82.54;98804.00;2024776;80;20167;-72
2021/07/31 02:29:53;;;;;;;1.42;0.60;;;;;;;12.74;82.57;98807.59;2024627;80;20313;-73
2021/07/31 02:32:56;;;;;;;5.74;0.73;;;;;;;12.66;82.74;98807.78;2018931;80;22128;-72
2021/07/31 02:36:03;;;;;;;4.30;1.13;;;;;;;12.63;82.96;98805.25;2019485;80;20201;-72
2021/07/31 02:39:06;;;;;;;3.56;0.60;;;;;;;12.57;83.07;98807.13;2019445;80;20322;-72
2021/07/31 02:42:08;;;;;;;3.00;0.60;;;;;;;12.53;83.22;98806.31;2019151;80;20179;-73
2021/07/31 02:45:11;;;;;;;11.36;1.00;;;;;;;12.52;83.17;98807.22;2018183;80;20183;-73
2021/07/31 02:48:14;;;;;;;4.57;0.71;;;;;;;12.54;83.23;98802.81;2024227;78;20175;-73
2021/07/31 02:51:18;;;;;;;4.99;0.73;;;;;;;12.48;83.23;98797.75;2024081;80;20179;-73
2021/07/31 02:54:20;;;;;;;2.94;0.50;;;;;;;12.44;83.26;98793.53;2024437;80;20229;-71
2021/07/31 02:57:23;;;;;;;3.01;0.65;;;;;;;12.37;83.46;98800.59;2024569;80;20176;-73
2021/07/31 03:00:25;;;;;;;2.14;0.63;;;;;;;12.28;83.97;98797.34;2022582;77;28450;-73
2021/07/31 03:03:28;;;;;;;6.18;0.89;;;;;;;12.21;84.30;98794.00;2018150;80;20191;-72
2021/07/31 03:06:31;;;;;;;2.39;0.55;;;;;;;12.15;84.52;98798.47;2017974;80;20926;-72
2021/07/31 03:09:33;;;;;;;3.65;0.77;;;;;;;12.09;84.92;98794.25;2018130;80;20208;-73
2021/07/31 03:12:36;;;;;;;3.19;0.70;;;;;;;12.05;85.14;98793.47;2017523;80;20207;-74
2021/07/31 03:15:38;;;;;;;3.19;0.71;;;;;;;12.10;85.29;98795.97;2018318;77;32149;-73
2021/07/31 03:18:42;;;;;;;3.15;1.30;;;;;;;12.11;85.12;98795.06;2022937;80;20228;-72
2021/07/31 03:21:45;;;;;;;4.45;0.70;;;;;;;12.09;84.89;98796.84;2022919;80;20163;-72
2021/07/31 03:24:47;;;;;;;3.05;0.77;;;;;;;12.06;84.89;98792.56;2022973;80;20660;-73
2021/07/31 03:27:50;;;;;;;4.28;0.94;;;;;;;12.09;84.78;98786.44;2022229;80;20189;-72
2021/07/31 03:30:52;;;;;;;5.43;0.80;;;;;;;12.13;84.52;98782.03;2020250;77;21251;-72
2021/07/31 03:33:55;;;;;;;4.10;0.68;;;;;;;12.18;84.14;98790.59;2018589;80;20180;-73
2021/07/31 03:36:58;;;;;;;5.03;0.80;;;;;;;12.21;83.93;98794.00;2017328;80;20334;-73
2021/07/31 03:40:02;;;;;;;1.94;0.74;;;;;;;12.25;83.81;98798.25;2017692;80;20207;-73
2021/07/31 03:43:05;;;;;;;4.25;0.68;;;;;;;12.28;83.46;98786.91;2018044;80;20183;-74
2021/07/31 03:46:07;;;;;;;4.51;0.60;;;;;;;12.31;83.36;98792.91;2018724;77;20800;-74
2021/07/31 03:49:11;;;;;;;2.53;0.60;;;;;;;12.32;83.08;98792.03;2022819;80;20199;-73
2021/07/31 03:52:13;;;;;;;3.19;0.70;;;;;;;12.32;82.99;98786.81;2023069;80;20183;-72
2021/07/31 03:55:17;;;;;;;5.31;0.86;;;;;;;12.32;83.17;98794.63;2022965;80;20935;-73
2021/07/31 03:58:19;;;;;;;3.05;0.74;;;;;;;12.31;83.19;98787.72;2022775;80;20232;-72
2021/07/31 04:01:26;;;;;;;2.85;0.60;;;;;;;12.30;83.04;98790.34;2019909;77;20295;-73
2021/07/31 04:04:28;;;;;;;4.88;1.06;;;;;;;12.28;83.49;98784.31;2017901;80;20642;-73
2021/07/31 04:07:31;;;;;;;4.07;0.61;;;;;;;12.22;83.98;98793.13;2017272;80;20741;-73
2021/07/31 04:10:34;;;;;;;2.19;0.65;;;;;;;12.23;84.72;98793.97;2018461;80;20200;-73
2021/07/31 04:13:37;;;;;;;4.75;0.79;;;;;;;12.26;84.62;98801.72;2017384;80;20197;-72
2021/07/31 04:16:40;;;;;;;3.83;0.64;;;;;;;12.35;84.44;98804.09;2020245;77;20183;-73
2021/07/31 04:19:42;;;;;;;4.60;0.70;;;;;;;12.41;83.63;98801.41;2023269;80;20207;-72
2021/07/31 04:22:45;;;;;;;1.69;0.60;;;;;;;12.41;83.83;98806.59;2022457;80;20170;-72
2021/07/31 04:25:47;;;;;;;5.10;0.71;;;;;;;12.44;83.30;98803.94;2022848;80;20216;-72
2021/07/31 04:28:50;;;;;;;4.84;0.80;;;;;;;12.40;83.88;98804.91;2022640;80;20238;-72
2021/07/31 04:31:53;;;;;;;4.68;1.09;;;;;;;12.37;84.44;98804.94;2018720;80;22649;-73
2021/07/31 04:34:55;;;;;;;4.04;0.70;;;;;;;12.32;84.99;98805.03;2017580;80;20183;-72
2021/07/31 04:37:58;;;;;;;4.69;0.75;;;;;;;12.32;85.26;98806.78;2017562;80;20258;-73
2021/07/31 04:41:03;;;;;;;4.86;0.70;;;;;;;12.33;85.71;98813.69;2017823;80;20191;-72
2021/07/31 04:44:06;;;;;;;3.28;0.60;;;;;;;12.34;86.20;98811.06;2017531;80;20187;-73
2021/07/31 04:47:08;;;;;;;4.49;0.90;;;;;;;12.45;86.28;98816.06;2020100;80;21511;-73
2021/07/31 04:50:14;;;;;;;3.04;0.70;;;;;;;12.56;86.32;98814.06;2023056;80;20667;-73
2021/07/31 04:53:16;;;;;;;3.09;0.75;;;;;;;12.68;86.13;98818.16;2022113;80;20275;-73
2021/07/31 04:56:19;;;;;;;7.72;0.89;;;;;;;12.79;86.07;98825.75;2022014;80;20196;-72
2021/07/31 04:59:21;;;;;;;4.90;0.85;;;;;;;12.91;85.78;98828.06;2018126;80;20294;-72
2021/07/31 05:02:24;;;;;;;3.16;0.57;;;;;;;13.02;85.26;98820.84;2017839;77;20734;-72
2021/07/31 05:05:27;;;;;;;4.10;0.60;;;;;;;13.15;84.94;98826.66;2016578;80;20231;-74
2021/07/31 05:08:29;;;;;;;1.67;0.60;;;;;;;13.34;84.66;98825.34;2017695;80;20281;-73
2021/07/31 05:11:32;;;;;;;1.26;0.68;;;;;;;13.54;83.84;98827.44;2017534;80;20236;-73
2021/07/31 05:14:35;;;;;;;3.94;0.60;;;;;;;13.67;83.19;98828.00;2017735;80;20180;-72
2021/07/31 05:17:37;;;;;;;5.76;1.10;;;;;;;13.87;82.45;98826.56;2016502;77;22115;-73
2021/07/31 05:20:46;;;;;;;3.47;0.81;;;;;;;14.13;80.81;98823.22;2017245;80;20192;-73
2021/07/31 05:23:48;;;;;;;5.55;1.39;;;;;;;14.48;79.35;98830.09;2017874;80;20211;-72
2021/07/31 05:26:51;;;;;;;2.24;0.70;;;;;;;14.79;77.65;98822.22;2016907;80;20211;-74
2021/07/31 05:29:54;;;;;;;3.99;0.70;;;;;;;14.92;76.24;98827.06;2017430;80;20293;-73
2021/07/31 05:32:56;;;;;;;6.26;0.75;;;;;;;14.86;75.51;98833.31;2021703;77;21712;-73
2021/07/31 05:36:06;;;;;;;5.82;1.29;;;;;;;15.01;74.95;98827.63;2022586;80;20259;-73
2021/07/31 05:39:09;;;;;;;5.71;1.51;;;;;;;15.24;74.25;98829.50;2022434;80;20291;-71
2021/07/31 05:42:11;;;;;;;5.76;0.94;;;;;;;15.26;74.05;98827.72;2022782;80;20167;-72
2021/07/31 05:45:14;;;;;;;4.93;1.00;;;;;;;15.21;73.76;98833.97;2021749;80;20235;-72
2021/07/31 05:48:17;;;;;;;3.34;0.80;;;;;;;15.72;73.00;98836.66;2017038;77;20164;-71
2021/07/31 05:51:19;;;;;;;5.10;1.00;;;;;;;16.18;71.23;98837.69;2018032;80;20188;-72
2021/07/31 05:54:22;;;;;;;3.31;0.70;;;;;;;16.66;69.44;98834.16;2017118;80;20785;-72
2021/07/31 05:57:25;;;;;;;3.46;0.75;;;;;;;17.14;68.38;98840.16;2018221;80;20187;-71
2021/07/31 06:00:27;;;;;;;6.22;1.10;;;;;;;17.41;66.88;98845.19;2016879;78;21216;-72
2021/07/31 06:03:30;;;;;;;4.69;0.70;;;;;;;17.83;65.91;98841.75;2022336;80;20175;-72
2021/07/31 06:06:33;;;;;;;5.16;0.90;;;;;;;18.00;65.80;98847.13;2022235;80;20189;-72
2021/07/31 06:09:37;;;;;;;2.40;0.68;;;;;;;18.41;64.94;98840.88;2022704;80;20564;-72
2021/07/31 06:12:40;;;;;;;4.63;1.02;;;;;;;18.62;63.65;98848.72;2021845;80;20620;-72
2021/07/31 06:15:42;;;;;;;4.32;0.80;;;;;;;18.82;62.40;98846.06;2021797;77;50846;-72
2021/07/31 06:18:45;;;;;;;5.56;0.80;;;;;;;19.20;61.99;98843.38;2022682;80;21069;-72
2021/07/31 06:21:48;;;;;;;5.57;1.66;;;;;;;19.48;60.82;98846.38;2022396;80;20160;-72
2021/07/31 06:24:50;;;;;;;5.74;0.80;;;;;;;19.82;59.91;98842.94;2022279;80;20226;-72
2021/07/31 06:27:54;;;;;;;3.71;0.66;;;;;;;20.02;58.96;98841.06;2020720;80;20195;-71
2021/07/31 06:30:56;;;;;;;8.60;0.80;;;;;;;20.32;58.24;98836.84;2019793;77;20900;-72
2021/07/31 06:34:00;;;;;;;3.76;0.70;;;;;;;20.46;57.22;98844.03;2017027;80;20176;-72
2021/07/31 06:37:03;;;;;;;4.46;0.89;;;;;;;20.80;57.23;98838.66;2017728;80;20164;-72
2021/07/31 06:40:06;;;;;;;2.51;0.68;;;;;;;20.92;56.55;98842.41;2017155;80;20225;-72
2021/07/31 06:43:09;;;;;;;8.02;0.91;;;;;;;20.76;55.82;98846.81;2017280;80;20228;-72
2021/07/31 06:46:13;;;;;;;6.04;0.80;;;;;;;21.01;55.86;98848.97;2017389;78;23057;-71
2021/07/31 06:49:16;;;;;;;2.16;0.66;;;;;;;21.27;55.22;98851.03;2021837;80;20183;-71
2021/07/31 06:52:19;;;;;;;1.06;0.66;;;;;;;21.26;54.34;98851.13;2022078;80;20536;-71
2021/07/31 06:55:22;;;;;;;7.65;0.70;;;;;;;21.19;53.62;98849.75;2022787;80;20310;-71
2021/07/31 06:58:24;;;;;;;8.65;0.74;;;;;;;21.40;52.99;98843.25;2023283;80;20191;-71
2021/07/31 07:01:27;;;;;;;3.44;0.47;;;;;;;21.33;53.89;98855.94;2019841;77;20193;-71
2021/07/31 07:04:30;;;;;;;4.45;0.64;;;;;;;21.26;52.56;98857.25;2017955;80;20215;-71
2021/07/31 07:07:32;;;;;;;3.25;0.76;;;;;;;21.26;52.64;98854.59;2017690;80;20180;-72
2021/07/31 07:10:36;;;;;;;1.20;0.50;;;;;;;21.50;52.49;98848.84;2020882;80;20334;-72
2021/07/31 07:13:38;;;;;;;3.65;0.50;;;;;;;21.67;51.52;98846.94;2014430;80;20209;-72
2021/07/31 07:16:41;;;;;;;4.75;0.70;;;;;;;21.97;51.27;98857.50;2019719;77;20530;-71
2021/07/31 07:19:44;;;;;;;2.35;0.64;;;;;;;22.24;50.72;98851.53;2022804;80;20240;-69
2021/07/31 07:22:46;;;;;;;2.35;0.80;;;;;;;22.80;49.56;98845.41;2022465;80;20183;-71
2021/07/31 07:25:49;;;;;;;3.20;0.65;;;;;;;22.56;49.33;98858.34;2023379;80;20159;-71
2021/07/31 07:28:51;;;;;;;3.79;0.69;;;;;;;22.01;50.51;98866.94;2022547;80;20171;-72
2021/07/31 07:31:54;;;;;;;4.59;0.57;;;;;;;21.62;51.09;98870.16;2019227;77;23016;-72
2021/07/31 07:34:57;;;;;;;1.91;0.60;;;;;;;21.42;52.37;98873.09;2018243;80;20472;-73
2021/07/31 07:37:59;;;;;;;3.65;0.68;;;;;;;21.28;53.35;98878.28;2017462;80;20200;-73
2021/07/31 07:41:08;;;;;;;5.47;0.81;;;;;;;20.93;53.26;98870.50;2018196;80;20203;-75
2021/07/31 07:44:10;;;;;;;4.21;0.70;;;;;;;20.87;53.53;98864.72;2017854;80;20292;-73
2021/07/31 07:47:13;;;;;;;3.91;0.65;;;;;;;20.86;53.26;98865.66;2020366;77;21580;-70
2021/07/31 07:50:15;;;;;;;1.95;0.50;;;;;;;20.50;54.00;98870.19;2023108;80;20171;-73
2021/07/31 07:53:18;;;;;;;2.60;0.80;;;;;;;20.66;54.27;98867.59;2023035;80;20557;-74
2021/07/31 07:56:21;;;;;;;2.88;0.50;;;;;;;21.02;54.78;98871.81;2023296;80;20209;-73
2021/07/31 07:59:24;;;;;;;5.26;0.60;;;;;;;21.30;53.41;98861.41;2022713;80;20203;-74
2021/07/31 08:02:26;;;;;;;4.89;0.94;;;;;;;21.92;52.14;98864.88;2017522;78;21551;-74
2021/07/31 08:05:29;;;;;;;3.49;0.65;;;;;;;21.71;50.83;98863.47;2017713;80;20283;-75
2021/07/31 08:08:31;;;;;;;4.13;1.20;;;;;;;21.90;51.50;98863.22;2017148;80;20698;-74
2021/07/31 08:11:34;;;;;;;2.47;0.60;;;;;;;21.98;51.69;98867.13;2017601;80;20210;-72
2021/07/31 08:14:37;;;;;;;3.61;0.60;;;;;;;22.14;50.00;98876.84;2013948;80;20159;-72
2021/07/31 08:17:40;;;;;;;3.58;0.70;;;;;;;22.08;50.48;98871.91;2021327;77;20592;-74
2021/07/31 08:20:43;;;;;;;2.25;0.71;;;;;;;22.02;50.50;98868.66;2021750;80;20171;-73
2021/07/31 08:23:46;;;;;;;2.05;0.50;;;;;;;22.33;50.28;98866.84;2022673;80;20203;-73
2021/07/31 08:26:49;;;;;;;3.16;0.65;;;;;;;22.52;50.09;98866.56;2018325;80;20194;-72
2021/07/31 08:29:52;;;;;;;3.16;0.75;;;;;;;22.63;49.20;98866.78;2022907;80;20223;-72
2021/07/31 08:32:54;;;;;;;1.40;0.69;;;;;;;22.94;48.88;98871.00;2016555;77;20839;-72
2021/07/31 08:35:58;;;;;;;2.19;0.56;;;;;;;22.98;48.06;98869.00;2017740;80;20189;-74
2021/07/31 08:39:01;;;;;;;3.28;0.60;;;;;;;23.13;48.31;98860.09;2017555;80;21042;-73
2021/07/31 08:42:05;;;;;;;1.06;0.60;;;;;;;23.09;47.08;98862.09;2016302;80;20175;-72
2021/07/31 08:45:09;;;;;;;2.25;0.59;;;;;;;23.02;47.20;98863.44;2016495;80;20306;-72
2021/07/31 08:48:13;;;;;;;7.60;1.56;;;;;;;23.42;48.33;98864.38;2021510;78;28092;-72
2021/07/31 08:51:16;;;;;;;2.11;0.60;;;;;;;23.68;47.38;98864.47;2022657;80;20223;-72
2021/07/31 08:54:19;;;;;;;3.22;0.89;;;;;;;23.73;45.75;98867.69;2022575;80;20706;-73
2021/07/31 08:57:21;;;;;;;2.95;0.50;;;;;;;23.34;45.85;98876.41;2021837;80;20175;-73
2021/07/31 09:00:24;;;;;;;1.63;0.50;;;;;;;23.38;47.05;98857.56;2024043;77;21463;-73
2021/07/31 09:03:26;;;;;;;2.54;0.71;;;;;;;23.30;47.46;98873.09;2017218;80;20184;-72
2021/07/31 09:06:32;;;;;;;5.26;0.64;;;;;;;23.31;46.27;98866.84;2016929;80;20253;-73
2021/07/31 09:09:35;;;;;;;2.10;0.61;;;;;;;22.96;46.81;98855.88;2017012;80;20600;-74
2021/07/31 09:12:51;;;;;;;2.67;0.55;;;;;;;22.84;46.38;98867.25;2013181;80;20283;-74
2021/07/31 09:15:54;;;;;;;2.25;0.75;;;;;;;22.78;46.79;98873.72;2018189;77;24529;-72
2021/07/31 09:19:05;;;;;;;3.08;0.66;;;;;;;22.67;46.59;98868.28;2021951;80;20675;-72
2021/07/31 09:22:08;;;;;;;1.86;0.55;;;;;;;22.65;47.82;98875.47;2022853;80;20446;-71
2021/07/31 09:25:13;;;;;;;4.20;0.50;;;;;;;23.02;47.41;98866.09;2022414;80;20208;-70
2021/07/31 09:28:18;;;;;;;3.22;0.50;;;;;;;22.98;46.54;98871.66;2022730;80;20200;-70
2021/07/31 09:31:21;;;;;;;0.99;0.50;;;;;;;23.11;46.97;98864.63;2019169;77;20240;-71
2021/07/31 09:34:34;;;;;;;4.04;0.60;;;;;;;22.69;47.33;98881.41;2017952;80;20208;-70
2021/07/31 09:37:46;;;;;;;4.65;0.60;;;;;;;22.31;49.18;98871.38;2017063;80;20168;-70
2021/07/31 09:40:49;;;;;;;1.94;0.70;;;;;;;22.69;47.59;98866.38;2017399;80;20175;-70
2021/07/31 09:44:18;;;;;;;4.19;0.66;;;;;;;22.63;47.05;98877.38;2017666;80;20295;-72
2021/07/31 09:47:21;;;;;;;3.22;0.74;;;;;;;22.44;48.08;98867.06;2018913;77;22155;-72
2021/07/31 09:50:36;;;;;;;6.75;0.60;;;;;;;22.45;48.30;98857.31;2021889;80;20624;-72
2021/07/31 09:53:41;;;;;;;2.86;0.84;;;;;;;22.14;49.13;98853.88;2022267;80;20921;-71
2021/07/31 09:56:46;;;;;;;3.00;0.64;;;;;;;22.05;49.62;98865.00;2022108;80;20229;-72
2021/07/31 09:59:50;;;;;;;1.76;0.60;;;;;;;21.77;50.82;98862.28;2021825;80;20175;-71
2021/07/31 10:02:53;;;;;;;3.91;0.77;;;;;;;21.58;51.08;98865.13;2016970;77;21608;-70
2021/07/31 10:05:56;;;;;;;1.25;0.56;;;;;;;21.50;51.82;98867.34;2016896;80;20309;-70
2021/07/31 10:09:08;;;;;;;1.49;0.70;;;;;;;21.66;52.05;98860.25;2017001;80;20171;-70
2021/07/31 10:12:14;;;;;;;1.91;0.60;;;;;;;21.71;51.76;98861.66;2016986;80;20341;-69
2021/07/31 10:15:17;;;;;;;6.56;0.57;;;;;;;21.86;51.15;98854.63;2017100;80;20180;-70
2021/07/31 10:18:23;;;;;;;4.31;0.60;;;;;;;22.09;51.16;98849.84;2017367;80;21533;-70
2021/07/31 10:21:26;;;;;;;2.96;0.64;;;;;;;22.40;50.62;98840.88;2016795;80;20213;-70
2021/07/31 10:25:01;;;;;;;5.99;0.66;;;;;;;22.68;49.89;98843.50;2016889;80;20525;-70
2021/07/31 10:28:28;;;;;;;2.31;0.70;;;;;;;22.56;48.22;98849.56;2016039;80;20245;-70
2021/07/31 10:31:32;;;;;;;2.34;0.77;;;;;;;22.65;50.23;98834.91;2018864;77;23261;-70
2021/07/31 10:34:57;;;;;;;3.24;0.51;;;;;;;22.73;48.94;98836.13;2023400;80;20207;-70
2021/07/31 10:38:03;;;;;;;2.24;0.54;;;;;;;22.59;49.21;98844.91;2023048;80;20198;-70
2021/07/31 10:41:05;;;;;;;1.21;0.60;;;;;;;22.45;49.00;98847.59;2023118;80;20258;-69
2021/07/31 10:44:12;;;;;;;1.60;0.66;;;;;;;22.32;48.52;98846.63;2023159;80;20171;-70
2021/07/31 10:47:20;;;;;;;1.05;0.50;;;;;;;22.50;48.97;98844.66;2018263;77;20203;-70
2021/07/31 10:50:26;;;;;;;1.15;0.51;;;;;;;22.79;49.05;98837.53;2017033;80;20201;-70
2021/07/31 10:53:48;;;;;;;2.10;0.60;;;;;;;22.89;48.10;98849.28;2017373;80;20741;-70
2021/07/31 10:56:56;;;;;;;0.76;0.50;;;;;;;22.75;47.60;98842.16;2017412;80;20760;-70
2021/07/31 11:00:24;;;;;;;1.67;0.61;;;;;;;22.52;48.23;98853.34;2017622;80;20326;-70
2021/07/31 11:03:40;;;;;;;0.89;0.50;;;;;;;22.50;48.77;98850.78;2017754;80;20213;-70
2021/07/31 11:07:11;;;;;;;3.88;0.70;;;;;;;22.61;47.45;98836.88;2017907;80;20823;-70
2021/07/31 11:10:39;;;;;;;1.64;0.70;;;;;;;22.38;48.17;98850.69;2017212;80;20232;-71
2021/07/31 11:13:52;;;;;;;0.91;0.50;;;;;;;22.71;47.82;98843.31;2017726;80;20223;-70
2021/07/31 11:17:16;;;;;;;2.46;0.60;;;;;;;22.89;48.16;98834.25;2016736;78;24399;-71
2021/07/31 11:20:31;;;;;;;0.75;0.50;;;;;;;22.92;46.20;98834.03;2017983;80;20683;-69
2021/07/31 11:23:43;;;;;;;1.30;0.60;;;;;;;22.91;45.89;98842.94;2017858;80;20180;-69
2021/07/31 11:26:52;;;;;;;3.24;0.70;;;;;;;22.80;47.21;98847.16;2017452;80;21348;-71
2021/07/31 11:29:55;;;;;;;3.47;0.60;;;;;;;22.59;47.24;98849.34;2018243;80;20213;-71
2021/07/31 11:33:27;;;;;;;2.30;0.40;;;;;;;22.59;48.17;98842.28;2016288;77;28041;-71
2021/07/31 11:36:30;;;;;;;1.90;0.50;;;;;;;22.74;47.88;98839.63;2017880;80;20630;-72
2021/07/31 11:39:33;;;;;;;2.61;0.84;;;;;;;22.68;47.44;98838.22;2016247;80;20211;-71
2021/07/31 11:42:36;;;;;;;1.11;0.57;;;;;;;22.35;47.97;98846.44;2017360;80;20281;-71
2021/07/31 11:45:42;;;;;;;2.54;0.71;;;;;;;22.26;49.29;98846.97;2017620;78;21296;-70
2021/07/31 11:48:48;;;;;;;2.10;0.61;;;;;;;22.29;49.93;98842.38;2022977;80;20252;-71
2021/07/31 11:51:52;;;;;;;2.78;0.69;;;;;;;22.39;48.52;98849.75;2022535;80;20183;-71
2021/07/31 11:54:55;;;;;;;3.42;0.60;;;;;;;22.45;48.05;98846.75;2017995;80;20612;-70
2021/07/31 11:57:59;;;;;;;2.86;0.66;;;;;;;22.45;46.42;98846.75;2022644;80;20711;-71
2021/07/31 12:01:03;;;;;;;1.67;0.51;;;;;;;22.41;46.88;98847.84;2019712;77;20191;-73
2021/07/31 12:04:06;;;;;;;1.27;0.49;;;;;;;22.36;48.29;98844.66;2017113;80;20774;-73
2021/07/31 12:07:19;;;;;;;3.46;0.50;;;;;;;22.48;48.37;98842.09;2017646;80;20229;-71
2021/07/31 12:10:21;;;;;;;1.91;0.60;;;;;;;22.81;47.38;98836.50;2017759;80;20160;-72
2021/07/31 12:13:30;;;;;;;2.25;0.51;;;;;;;23.12;46.61;98839.84;2016914;80;20179;-71
2021/07/31 12:16:33;;;;;;;2.42;0.50;;;;;;;23.61;46.84;98837.53;2018770;78;20826;-73
2021/07/31 12:19:47;;;;;;;2.66;0.51;;;;;;;23.93;45.76;98830.06;2022118;80;21163;-71
2021/07/31 12:22:52;;;;;;;1.26;0.47;;;;;;;24.43;44.32;98833.72;2023029;80;20217;-71
2021/07/31 12:25:57;;;;;;;2.54;0.60;;;;;;;24.94;43.63;98831.81;2021839;80;20187;-72
2021/07/31 12:29:00;;;;;;;0.94;0.40;;;;;;;25.26;42.52;98828.66;2022349;80;20191;-72
2021/07/31 12:32:28;;;;;;;2.72;0.57;;;;;;;25.41;41.59;98829.31;2017476;77;21990;-72
2021/07/31 12:35:39;;;;;;;2.69;0.54;;;;;;;25.25;41.98;98827.81;2015852;80;20285;-74
2021/07/31 12:38:42;;;;;;;0.82;0.40;;;;;;;25.28;40.85;98822.25;2016959;80;20264;-74
2021/07/31 12:41:45;;;;;;;1.64;0.52;;;;;;;25.23;39.73;98823.56;2017194;80;20180;-74
2021/07/31 12:44:47;;;;;;;2.78;0.50;;;;;;;24.91;41.71;98820.56;2017386;80;20176;-73
2021/07/31 12:47:50;;;;;;;0.89;0.40;;;;;;;24.63;42.74;98811.94;2016218;80;20192;-73
2021/07/31 12:50:53;;;;;;;5.91;0.50;;;;;;;24.54;43.94;98811.72;2016971;80;20328;-74
2021/07/31 12:53:55;;;;;;;4.41;0.44;;;;;;;24.40;42.42;98812.69;2020901;80;20235;-72
2021/07/31 12:56:58;;;;;;;3.04;0.68;;;;;;;24.29;43.04;98812.59;2017019;80;20228;-71
2021/07/31 13:00:06;;;;;;;1.61;0.40;;;;;;;24.21;43.47;98801.63;2016830;80;20180;-72
2021/07/31 13:03:28;;;;;;;3.94;0.40;;;;;;;24.59;43.33;98796.31;2016961;80;20196;-72
2021/07/31 13:06:31;;;;;;;0.82;0.43;;;;;;;24.43;40.95;98806.34;2017363;80;20545;-72
2021/07/31 13:09:33;;;;;;;0.98;0.43;;;;;;;24.41;41.02;98790.50;2017354;80;20310;-72
2021/07/31 13:12:36;;;;;;;1.89;0.60;;;;;;;24.26;41.91;98804.84;2017195;80;20183;-71
2021/07/31 13:15:41;;;;;;;2.26;0.46;;;;;;;24.56;40.81;98799.19;2017080;77;22402;-72
2021/07/31 13:18:43;;;;;;;1.31;0.40;;;;;;;24.78;39.76;98799.38;2023088;80;20564;-72
2021/07/31 13:21:46;;;;;;;1.75;0.40;;;;;;;24.96;42.02;98805.16;2021899;80;20170;-73
2021/07/31 13:24:49;;;;;;;0.76;0.44;;;;;;;25.04;42.10;98802.81;2023157;80;20565;-72
2021/07/31 13:27:51;;;;;;;0.74;0.50;;;;;;;24.93;40.64;98792.91;2022442;80;20709;-72
2021/07/31 13:30:54;;;;;;;2.55;0.82;;;;;;;24.90;42.08;98805.59;2019135;77;22050;-72
2021/07/31 13:33:59;;;;;;;2.83;0.82;;;;;;;24.88;40.97;98797.72;2017512;80;20183;-72
2021/07/31 13:37:03;;;;;;;1.89;0.60;;;;;;;24.71;41.68;98804.25;2017206;80;20729;-72
2021/07/31 13:40:17;;;;;;;1.54;0.61;;;;;;;24.95;42.49;98801.63;2016833;80;20201;-73
2021/07/31 13:43:19;;;;;;;1.67;0.52;;;;;;;25.17;42.27;98806.28;2016961;80;20802;-72
2021/07/31 13:46:22;;;;;;;1.36;0.40;;;;;;;24.97;41.65;98796.22;2018185;78;21105;-72
2021/07/31 13:49:24;;;;;;;2.66;0.50;;;;;;;24.80;41.47;98794.78;2021972;80;20853;-72
2021/07/31 13:52:27;;;;;;;2.80;0.59;;;;;;;24.28;41.40;98802.91;2021196;80;20195;-71
2021/07/31 13:55:30;;;;;;;1.04;0.61;;;;;;;24.02;41.92;98800.25;2021776;80;20307;-71
2021/07/31 13:58:32;;;;;;;2.42;0.51;;;;;;;24.51;42.25;98790.72;2021736;80;20288;-72
2021/07/31 14:01:36;;;;;;;1.20;0.47;;;;;;;24.88;41.50;98796.88;2019126;77;20979;-71
2021/07/31 14:04:39;;;;;;;1.70;0.40;;;;;;;25.14;41.44;98787.06;2017368;80;20340;-72
2021/07/31 14:07:42;;;;;;;1.33;0.50;;;;;;;25.22;40.44;98793.47;2017446;80;20240;-72
2021/07/31 14:10:45;;;;;;;0.94;0.59;;;;;;;25.40;40.11;98787.75;2018171;80;20302;-71
2021/07/31 14:13:48;;;;;;;1.04;0.50;;;;;;;25.36;40.06;98791.63;2018163;80;20201;-72
2021/07/31 14:16:50;;;;;;;1.75;0.50;;;;;;;25.18;38.15;98789.38;2020102;77;23332;-72
2021/07/31 14:19:53;;;;;;;5.05;0.86;;;;;;;25.16;39.01;98780.66;2023039;80;20571;-73
2021/07/31 14:22:55;;;;;;;4.61;0.74;;;;;;;25.33;40.60;98791.84;2023143;80;20171;-74
2021/07/31 14:25:58;;;;;;;1.02;0.50;;;;;;;25.34;40.89;98780.25;2023372;80;20179;-72
2021/07/31 14:29:02;;;;;;;2.63;0.54;;;;;;;25.09;40.63;98776.75;2022952;80;20167;-71